createdAt,value
2019-05-10T00:00:44.522Z,12.20
2019-05-10T00:03:31.547Z,12.10
2019-05-10T00:06:18.519Z,12.10
2019-05-10T00:08:47.163Z,12.20
2019-05-10T00:11:29.407Z,12.10
2019-05-10T00:14:16.460Z,12.10
2019-05-10T00:16:47.461Z,12.10
2019-05-10T00:19:17.315Z,12.00
2019-05-10T00:21:46.862Z,12.00
2019-05-10T00:24:16.501Z,11.90
2019-05-10T00:26:46.006Z,11.90
2019-05-10T00:29:15.560Z,11.80
2019-05-10T00:31:45.123Z,11.80
2019-05-10T00:34:14.911Z,11.90
2019-05-10T00:36:47.247Z,11.90
2019-05-10T00:39:19.517Z,11.80
2019-05-10T00:41:49.019Z,11.70
2019-05-10T00:44:20.365Z,11.90
2019-05-10T00:46:51.324Z,11.90
2019-05-10T00:49:21.213Z,11.80
2019-05-10T00:51:56.123Z,11.80
2019-05-10T00:54:25.779Z,11.80
2019-05-10T00:59:52.333Z,11.80
2019-05-10T01:02:22.084Z,11.70
2019-05-10T01:04:52.498Z,11.70
2019-05-10T01:07:22.229Z,11.70
2019-05-10T01:09:51.752Z,11.60
2019-05-10T01:12:21.492Z,11.60
2019-05-10T01:14:51.183Z,11.50
2019-05-10T01:17:20.703Z,11.40
2019-05-10T01:19:50.435Z,11.40
2019-05-10T01:22:20.147Z,11.30
2019-05-10T01:24:49.800Z,11.20
2019-05-10T01:27:19.390Z,11.10
2019-05-10T01:29:49.034Z,11.10
2019-05-10T01:32:18.544Z,11.00
2019-05-10T01:34:48.130Z,10.90
2019-05-10T01:37:17.713Z,10.90
2019-05-10T01:39:47.267Z,10.80
2019-05-10T01:42:16.795Z,10.80
2019-05-10T01:44:46.334Z,10.70
2019-05-10T01:47:15.856Z,10.70
2019-05-10T01:49:45.444Z,10.60
2019-05-10T01:52:15.534Z,10.60
2019-05-10T01:54:45.085Z,10.60
2019-05-10T01:57:14.706Z,10.60
2019-05-10T01:59:44.541Z,10.60
2019-05-10T02:02:14.441Z,10.70
2019-05-10T02:04:44.105Z,10.80
2019-05-10T02:07:13.991Z,10.80
2019-05-10T02:09:43.610Z,10.80
2019-05-10T02:12:13.209Z,10.80
2019-05-10T02:14:43.067Z,10.70
2019-05-10T02:17:12.679Z,10.70
2019-05-10T02:19:42.266Z,10.60
2019-05-10T02:22:11.814Z,10.70
2019-05-10T02:24:41.317Z,10.70
2019-05-10T02:27:11.025Z,10.70
2019-05-10T02:29:40.558Z,10.80
2019-05-10T02:32:10.118Z,10.80
2019-05-10T02:34:39.632Z,10.80
2019-05-10T02:37:09.282Z,10.80
2019-05-10T02:39:40.880Z,10.70
2019-05-10T02:42:10.104Z,10.70
2019-05-10T02:44:39.636Z,10.60
2019-05-10T02:47:09.218Z,10.60
2019-05-10T02:49:39.267Z,10.50
2019-05-10T02:52:08.839Z,10.50
2019-05-10T02:54:38.436Z,10.40
2019-05-10T02:57:09.013Z,10.40
2019-05-10T02:59:38.929Z,10.40
2019-05-10T03:02:08.405Z,10.50
2019-05-10T03:04:38.824Z,10.30
2019-05-10T03:07:08.847Z,10.30
2019-05-10T03:09:38.687Z,10.30
2019-05-10T03:12:27.178Z,10.30
2019-05-10T03:14:59.262Z,10.30
2019-05-10T03:17:29.730Z,10.30
2019-05-10T03:20:01.968Z,10.30
2019-05-10T03:22:35.132Z,10.20
2019-05-10T03:25:06.102Z,10.30
2019-05-10T03:27:37.008Z,10.20
2019-05-10T03:30:06.923Z,10.20
2019-05-10T03:32:39.659Z,10.20
2019-05-10T03:35:10.702Z,10.20
2019-05-10T03:37:40.930Z,10.10
2019-05-10T03:40:10.793Z,10.10
2019-05-10T03:42:41.210Z,10.10
2019-05-10T03:45:11.410Z,10.10
2019-05-10T03:47:43.017Z,10.10
2019-05-10T03:50:13.281Z,10.10
2019-05-10T03:52:51.701Z,10.10
2019-05-10T03:55:18.261Z,10.10
2019-05-10T03:57:48.039Z,10.20
2019-05-10T04:00:18.221Z,10.10
2019-05-10T04:02:49.526Z,10.20
2019-05-10T04:05:23.780Z,10.20
2019-05-10T04:07:54.173Z,10.20
2019-05-10T04:10:24.687Z,10.20
2019-05-10T04:12:58.968Z,10.20
2019-05-10T04:15:28.808Z,10.20
2019-05-10T04:18:23.448Z,10.30
2019-05-10T04:21:12.536Z,10.30
2019-05-10T04:24:19.048Z,10.30
2019-05-10T04:27:08.227Z,10.20
2019-05-10T04:29:57.633Z,10.30
2019-05-10T04:32:56.136Z,10.20
2019-05-10T04:36:12.400Z,10.30
2019-05-10T04:38:42.006Z,10.30
2019-05-10T04:41:33.253Z,10.30
2019-05-10T04:51:19.023Z,10.40
2019-05-10T04:53:52.161Z,10.50
2019-05-10T04:56:30.118Z,10.40
2019-05-10T05:02:24.450Z,10.50
2019-05-10T05:04:54.874Z,10.60
2019-05-10T05:07:47.802Z,10.70
2019-05-10T05:11:05.759Z,10.70
2019-05-10T05:13:36.023Z,10.80
2019-05-10T05:19:19.508Z,10.70
2019-05-10T05:21:54.919Z,10.80
2019-05-10T05:24:25.146Z,10.70
2019-05-10T05:26:57.527Z,10.80
2019-05-10T05:29:36.135Z,10.80
2019-05-10T05:32:13.474Z,10.80
2019-05-10T05:34:43.273Z,10.90
2019-05-10T05:37:18.983Z,10.80
2019-05-10T05:39:44.332Z,10.90
2019-05-10T05:42:14.217Z,10.90
2019-05-10T05:44:43.880Z,10.90
2019-05-10T05:47:13.533Z,10.90
2019-05-10T05:49:43.235Z,10.90
2019-05-10T05:52:13.305Z,10.80
2019-05-10T05:54:45.905Z,10.80
2019-05-10T05:57:15.414Z,10.90
2019-05-10T05:59:48.634Z,11.00
2019-05-10T06:02:16.143Z,10.90
2019-05-10T06:04:46.213Z,11.00
2019-05-10T06:07:17.024Z,11.00
2019-05-10T06:09:46.698Z,11.10
2019-05-10T06:12:16.231Z,11.10
2019-05-10T06:14:49.951Z,11.30
2019-05-10T06:17:17.027Z,11.40
2019-05-10T06:19:46.546Z,11.60
2019-05-10T06:22:16.285Z,11.60
2019-05-10T06:24:46.788Z,11.70
2019-05-10T06:27:16.913Z,11.70
2019-05-10T06:29:46.467Z,11.60
2019-05-10T06:32:16.007Z,11.50
2019-05-10T06:34:45.652Z,11.50
2019-05-10T06:37:15.206Z,11.50
2019-05-10T06:39:45.291Z,11.50
2019-05-10T06:42:14.775Z,11.50
2019-05-10T06:44:44.563Z,11.50
2019-05-10T06:47:14.125Z,11.40
2019-05-10T06:49:50.708Z,11.40
2019-05-10T06:52:16.500Z,11.50
2019-05-10T06:54:46.405Z,11.60
2019-05-10T06:57:17.638Z,11.60
2019-05-10T06:59:47.057Z,11.70
2019-05-10T07:02:19.949Z,11.70
2019-05-10T07:04:48.746Z,11.80
2019-05-10T07:07:33.101Z,11.80
2019-05-10T07:10:13.184Z,11.70
2019-05-10T07:12:20.763Z,11.90
2019-05-10T07:14:50.307Z,12.20
2019-05-10T07:17:19.810Z,12.60
2019-05-10T07:19:53.629Z,13.00
2019-05-10T07:22:21.895Z,13.30
2019-05-10T07:24:57.241Z,13.40
2019-05-10T07:27:23.078Z,13.20
2019-05-10T07:29:52.658Z,12.80
2019-05-10T07:32:24.445Z,12.70
2019-05-10T07:34:58.954Z,12.80
2019-05-10T07:37:24.607Z,12.90
2019-05-10T07:39:54.175Z,12.90
2019-05-10T07:42:23.795Z,13.00
2019-05-10T07:44:53.746Z,12.90
2019-05-10T07:47:24.036Z,13.10
2019-05-10T07:49:55.371Z,13.10
2019-05-10T07:52:26.745Z,13.30
2019-05-10T07:54:56.292Z,13.40
2019-05-10T07:57:27.043Z,13.40
2019-05-10T07:59:57.679Z,13.20
2019-05-10T08:02:27.891Z,13.10
2019-05-10T08:04:58.436Z,12.60
2019-05-10T08:07:29.415Z,12.80
2019-05-10T08:09:59.539Z,13.20
2019-05-10T08:12:29.130Z,13.40
2019-05-10T08:14:59.066Z,13.30
2019-05-10T08:17:29.110Z,13.20
2019-05-10T08:19:58.775Z,13.10
2019-05-10T08:22:32.765Z,13.00
2019-05-10T08:25:02.217Z,13.00
2019-05-10T08:27:32.458Z,13.00
2019-05-10T08:30:20.762Z,12.60
2019-05-10T08:32:34.919Z,12.40
2019-05-10T08:35:05.425Z,12.30
2019-05-10T08:37:37.723Z,12.20
2019-05-10T08:40:06.532Z,12.10
2019-05-10T08:42:45.214Z,12.10
2019-05-10T08:45:09.236Z,12.10
2019-05-10T08:47:38.435Z,12.20
2019-05-10T08:50:22.381Z,12.10
2019-05-10T08:52:39.348Z,12.10
2019-05-10T08:55:12.092Z,12.20
2019-05-10T08:57:44.411Z,12.20
2019-05-10T09:00:13.071Z,12.20
2019-05-10T09:02:42.921Z,12.20
2019-05-10T09:05:12.716Z,12.10
2019-05-10T09:07:43.048Z,12.30
2019-05-10T09:10:13.636Z,12.50
2019-05-10T09:12:51.096Z,12.60
2019-05-10T09:15:14.716Z,12.60
2019-05-10T09:17:44.292Z,12.70
2019-05-10T09:20:20.611Z,12.80
2019-05-10T09:22:45.848Z,12.70
2019-05-10T09:25:20.147Z,12.60
2019-05-10T09:27:47.095Z,12.70
2019-05-10T09:30:29.553Z,12.70
2019-05-10T09:33:08.343Z,12.60
2019-05-10T09:35:33.000Z,12.50
2019-05-10T09:38:02.546Z,12.50
2019-05-10T09:40:32.687Z,12.70
2019-05-10T09:43:05.166Z,12.70
2019-05-10T09:45:34.486Z,12.80
2019-05-10T09:48:04.095Z,12.90
2019-05-10T09:50:41.325Z,13.20
2019-05-10T09:53:06.733Z,13.40
2019-05-10T09:55:36.959Z,13.30
2019-05-10T09:58:08.547Z,13.70
2019-05-10T10:00:38.181Z,14.00
2019-05-10T10:03:08.427Z,13.70
2019-05-10T10:05:40.253Z,13.90
2019-05-10T10:08:10.966Z,13.90
2019-05-10T10:10:40.257Z,13.40
2019-05-10T10:13:39.475Z,13.40
2019-05-10T10:16:04.040Z,13.60
2019-05-10T10:18:31.298Z,13.60
2019-05-10T10:21:00.782Z,13.70
2019-05-10T10:23:34.789Z,13.30
2019-05-10T10:26:03.488Z,13.00
2019-05-10T10:28:36.432Z,13.00
2019-05-10T10:31:05.378Z,13.10
2019-05-10T10:33:37.771Z,13.30
2019-05-10T10:36:10.301Z,13.60
2019-05-10T10:38:45.310Z,13.70
2019-05-10T10:41:08.953Z,13.40
2019-05-10T10:43:38.543Z,13.50
2019-05-10T10:46:11.934Z,13.40
2019-05-10T10:48:43.507Z,13.40
2019-05-10T10:51:10.960Z,13.40
2019-05-10T10:53:40.448Z,13.50
2019-05-10T10:56:10.115Z,13.70
2019-05-10T10:58:39.705Z,13.90
2019-05-10T11:01:20.067Z,14.00
2019-05-10T11:03:40.963Z,13.90
2019-05-10T11:06:10.694Z,14.00
2019-05-10T11:08:41.257Z,14.00
2019-05-10T11:11:10.903Z,14.00
2019-05-10T11:13:44.862Z,13.90
2019-05-10T11:16:15.793Z,13.60
2019-05-10T11:18:42.960Z,13.50
2019-05-10T11:21:13.809Z,13.60
2019-05-10T11:23:43.468Z,13.60
2019-05-10T11:26:13.152Z,13.70
2019-05-10T11:28:44.052Z,13.90
2019-05-10T11:31:14.173Z,14.40
2019-05-10T11:33:47.237Z,14.70
2019-05-10T11:36:14.915Z,15.00
2019-05-10T11:38:47.175Z,15.00
2019-05-10T11:41:21.246Z,14.60
2019-05-10T11:43:47.028Z,14.60
2019-05-10T11:46:16.860Z,14.30
2019-05-10T11:48:46.320Z,14.30
2019-05-10T11:56:23.669Z,13.90
2019-05-10T11:58:54.896Z,13.60
2019-05-10T11:59:04.703Z,14.10
2019-05-10T11:59:05.051Z,14.00
2019-05-10T12:01:22.254Z,14.00
2019-05-10T12:03:52.203Z,14.10
2019-05-10T12:06:21.865Z,14.20
2019-05-10T12:08:56.871Z,14.20
2019-05-10T12:11:33.001Z,13.90
2019-05-10T12:14:23.220Z,13.90
2019-05-10T12:17:47.680Z,13.80
2019-05-10T12:21:09.639Z,14.20
2019-05-10T12:23:50.202Z,14.70
2019-05-10T12:27:12.979Z,15.00
2019-05-10T12:29:17.187Z,15.10
2019-05-10T12:32:07.440Z,15.40
2019-05-10T12:34:37.157Z,15.60
2019-05-10T12:37:14.003Z,15.80
2019-05-10T12:39:45.630Z,15.70
2019-05-10T12:42:17.938Z,15.30
2019-05-10T12:44:57.637Z,15.20
2019-05-10T12:47:52.078Z,15.00
2019-05-10T12:50:44.036Z,15.00
2019-05-10T12:53:15.477Z,14.90
2019-05-10T12:55:52.868Z,14.80
2019-05-10T12:58:23.154Z,14.70
2019-05-10T13:00:54.290Z,14.60
2019-05-10T13:03:54.223Z,14.50
2019-05-10T13:06:24.604Z,14.40
2019-05-10T13:08:58.302Z,14.30
2019-05-10T13:11:27.416Z,14.50
2019-05-10T13:14:01.073Z,14.60
2019-05-10T13:17:43.809Z,14.70
2019-05-10T13:21:00.211Z,15.00
2019-05-10T13:23:38.680Z,15.10
2019-05-10T13:29:08.087Z,15.10
2019-05-10T13:31:57.138Z,15.00
2019-05-10T13:34:39.403Z,14.90
2019-05-10T13:40:25.610Z,14.50
2019-05-10T13:43:17.287Z,14.50
2019-05-10T13:46:39.255Z,14.60
2019-05-10T13:49:09.662Z,15.00
2019-05-10T13:51:58.411Z,15.00
2019-05-10T13:57:58.379Z,15.40
2019-05-10T14:00:33.433Z,15.60
2019-05-10T14:03:10.909Z,15.90
2019-05-10T14:05:39.439Z,16.20
2019-05-10T14:08:07.724Z,16.30
2019-05-10T14:11:10.963Z,16.40
2019-05-10T14:13:46.512Z,16.20
2019-05-10T14:16:38.288Z,16.10
2019-05-10T14:19:37.035Z,15.80
2019-05-10T14:22:36.025Z,15.90
2019-05-10T14:25:06.151Z,16.10
2019-05-10T14:27:38.086Z,16.00
2019-05-10T14:30:13.383Z,15.90
2019-05-10T14:32:48.765Z,16.10
2019-05-10T14:35:22.592Z,16.10
2019-05-10T14:37:52.653Z,16.20
2019-05-10T14:43:51.425Z,16.00
2019-05-10T14:50:26.054Z,15.80
2019-05-10T14:52:52.909Z,15.80
2019-05-10T14:55:33.945Z,15.80
2019-05-10T14:58:20.937Z,15.80
2019-05-10T15:00:50.503Z,15.70
2019-05-10T15:03:20.034Z,15.70
2019-05-10T15:05:55.310Z,16.00
2019-05-10T15:08:20.815Z,16.10
2019-05-10T15:10:50.809Z,15.60
2019-05-10T15:13:25.946Z,15.60
2019-05-10T15:15:51.632Z,15.80
2019-05-10T15:18:21.400Z,16.10
2019-05-10T15:20:50.897Z,16.40
2019-05-10T15:23:20.451Z,16.50
2019-05-10T15:26:14.404Z,16.40
2019-05-10T15:28:46.608Z,16.40
2019-05-10T15:31:16.074Z,16.40
2019-05-10T15:33:46.572Z,16.20
2019-05-10T15:36:16.047Z,16.10
2019-05-10T15:38:57.469Z,16.20
2019-05-10T15:41:28.929Z,16.30
2019-05-10T15:43:58.634Z,16.10
2019-05-10T15:46:38.715Z,16.20
2019-05-10T15:49:13.473Z,16.20
2019-05-10T15:52:24.377Z,16.10
2019-05-10T15:54:45.056Z,15.90
2019-05-10T15:57:14.627Z,15.60
2019-05-10T15:59:41.934Z,15.30
2019-05-10T16:02:11.532Z,15.20
2019-05-10T16:04:41.099Z,15.20
2019-05-10T16:07:16.654Z,15.10
2019-05-10T16:09:49.905Z,15.00
2019-05-10T16:12:20.594Z,14.90
2019-05-10T16:14:50.206Z,14.70
2019-05-10T16:17:23.784Z,14.40
2019-05-10T16:20:00.208Z,14.30
2019-05-10T16:22:37.103Z,14.20
2019-05-10T16:25:08.261Z,14.10
2019-05-10T16:27:44.534Z,14.20
2019-05-10T16:30:11.878Z,14.10
2019-05-10T16:33:01.433Z,14.10
2019-05-10T16:35:38.685Z,14.10
2019-05-10T16:38:03.016Z,14.10
2019-05-10T16:41:05.633Z,13.90
2019-05-10T16:43:51.909Z,13.90
2019-05-10T16:46:21.264Z,13.90
2019-05-10T16:48:51.513Z,13.90
2019-05-10T16:51:59.675Z,14.00
2019-05-10T16:54:49.823Z,14.00
2019-05-10T16:57:19.506Z,14.00
2019-05-10T16:59:49.140Z,14.10
2019-05-10T17:02:18.656Z,13.90
2019-05-10T17:04:48.192Z,13.90
2019-05-10T17:07:18.812Z,14.10
2019-05-10T17:09:54.676Z,14.20
2019-05-10T17:12:27.500Z,13.90
2019-05-10T17:14:56.377Z,13.70
2019-05-10T17:17:31.371Z,13.60
2019-05-10T17:19:58.734Z,13.30
2019-05-10T17:22:28.390Z,13.40
2019-05-10T17:25:03.437Z,13.40
2019-05-10T17:27:29.215Z,13.10
2019-05-10T17:29:58.872Z,13.20
2019-05-10T17:32:28.433Z,13.00
2019-05-10T17:34:59.098Z,13.10
2019-05-10T17:37:35.148Z,13.20
2019-05-10T17:40:04.727Z,13.10
2019-05-10T17:42:35.570Z,13.00
2019-05-10T17:45:04.494Z,12.70
2019-05-10T17:47:34.185Z,12.60
2019-05-10T17:50:03.888Z,12.50
2019-05-10T17:52:33.435Z,12.50
2019-05-10T17:55:03.141Z,12.40
2019-05-10T17:57:32.867Z,12.40
2019-05-10T18:00:02.713Z,12.50
2019-05-10T18:02:32.471Z,12.50
2019-05-10T18:05:06.216Z,12.70
2019-05-10T18:07:33.456Z,12.60
2019-05-10T18:10:03.116Z,12.70
2019-05-10T18:12:32.744Z,12.80
2019-05-10T18:15:21.435Z,12.70
2019-05-10T18:17:51.040Z,12.80
2019-05-10T18:20:20.958Z,12.70
2019-05-10T18:22:50.466Z,12.70
2019-05-10T18:25:22.214Z,12.60
2019-05-10T18:27:51.307Z,12.60
2019-05-10T18:30:21.990Z,12.60
2019-05-10T18:32:51.564Z,12.70
2019-05-10T18:35:21.539Z,12.70
2019-05-10T18:37:53.563Z,12.60
2019-05-10T18:40:25.392Z,12.60
2019-05-10T18:42:57.728Z,12.40
2019-05-10T18:45:28.738Z,12.30
2019-05-10T18:47:56.675Z,12.30
2019-05-10T18:50:26.192Z,12.10
2019-05-10T18:52:55.834Z,12.10
2019-05-10T18:55:25.615Z,12.00
2019-05-10T18:57:55.156Z,12.00
2019-05-10T19:00:25.314Z,11.90
2019-05-10T19:02:57.053Z,11.80
2019-05-10T19:05:31.615Z,11.80
2019-05-10T19:08:04.328Z,11.70
2019-05-10T19:10:28.970Z,11.70
2019-05-10T19:13:01.367Z,11.60
2019-05-10T19:15:30.066Z,11.70
2019-05-10T19:17:59.646Z,11.60
2019-05-10T19:20:29.179Z,11.60
2019-05-10T19:22:59.005Z,11.60
2019-05-10T19:25:28.992Z,11.60
2019-05-10T19:27:58.656Z,11.70
2019-05-10T19:30:28.441Z,11.80
2019-05-10T19:33:17.369Z,11.70
2019-05-10T19:35:47.373Z,11.80
2019-05-10T19:38:20.264Z,11.80
2019-05-10T19:40:50.140Z,11.90
2019-05-10T19:43:24.033Z,11.80
2019-05-10T19:45:59.708Z,11.70
2019-05-10T19:48:35.669Z,11.60
2019-05-10T19:51:09.596Z,11.60
2019-05-10T19:53:41.513Z,11.50
2019-05-10T19:56:08.115Z,11.60
2019-05-10T19:58:38.364Z,11.60
2019-05-10T20:01:09.478Z,11.50
2019-05-10T20:03:41.084Z,11.50
2019-05-10T20:06:10.690Z,11.70
2019-05-10T20:08:40.590Z,11.70
2019-05-10T20:11:10.286Z,11.50
2019-05-10T20:13:39.939Z,11.60
2019-05-10T20:16:10.165Z,11.50
2019-05-10T20:18:39.896Z,11.40
2019-05-10T20:21:10.747Z,11.40
2019-05-10T20:24:38.575Z,11.30
2019-05-10T20:26:39.836Z,11.20
2019-05-10T20:29:11.731Z,11.10
2019-05-10T20:32:02.596Z,11.00
2019-05-10T20:34:51.186Z,10.90
2019-05-10T20:37:24.680Z,10.80
2019-05-10T20:39:54.521Z,10.80
2019-05-10T20:42:24.320Z,10.70
2019-05-10T20:45:06.850Z,10.60
2019-05-10T20:47:25.437Z,10.50
2019-05-10T20:49:57.815Z,10.40
2019-05-10T20:52:27.598Z,10.40
2019-05-10T20:55:03.515Z,10.20
2019-05-10T20:57:33.262Z,10.10
2019-05-10T21:00:02.987Z,10.10
2019-05-10T21:02:34.973Z,10.00
2019-05-10T21:05:26.992Z,9.90
2019-05-10T21:08:16.106Z,9.80
2019-05-10T21:10:34.503Z,9.80
2019-05-10T21:13:10.255Z,9.90
2019-05-10T21:15:40.003Z,10.00
2019-05-10T21:18:09.845Z,10.10
2019-05-10T21:20:39.380Z,10.00
2019-05-10T21:23:09.549Z,9.90
2019-05-10T21:25:46.587Z,9.80
2019-05-10T21:28:16.825Z,9.70
2019-05-10T21:30:49.317Z,9.60
2019-05-10T21:33:18.842Z,9.60
2019-05-10T21:35:50.209Z,9.60
2019-05-10T21:38:31.923Z,9.50
2019-05-10T21:40:51.428Z,9.50
2019-05-10T21:43:25.667Z,9.50
2019-05-10T21:45:55.257Z,9.50
2019-05-10T21:48:26.770Z,9.50
2019-05-10T21:50:56.124Z,9.40
2019-05-10T21:53:25.756Z,9.40
2019-05-10T21:55:55.555Z,9.30
2019-05-10T21:58:25.270Z,9.30
2019-05-10T22:00:55.057Z,9.20
2019-05-10T22:03:24.801Z,9.20
2019-05-10T22:05:54.304Z,9.20
2019-05-10T22:08:23.914Z,9.20
2019-05-10T22:10:53.637Z,9.20
2019-05-10T22:13:23.308Z,9.20
2019-05-10T22:15:52.915Z,9.20
2019-05-10T22:18:22.443Z,9.10
2019-05-10T22:20:52.084Z,9.10
2019-05-10T22:23:21.768Z,9.20
2019-05-10T22:25:51.415Z,9.10
2019-05-10T22:28:21.059Z,9.20
2019-05-10T22:30:50.731Z,9.20
2019-05-10T22:33:20.350Z,9.10
2019-05-10T22:35:49.911Z,9.20
2019-05-10T22:38:19.592Z,9.30
2019-05-10T22:40:49.125Z,9.30
2019-05-10T22:43:18.680Z,9.30
2019-05-10T22:45:48.159Z,9.30
2019-05-10T22:48:17.732Z,9.30
2019-05-10T22:50:47.263Z,9.20
2019-05-10T22:53:16.807Z,9.20
2019-05-10T22:55:46.312Z,9.30
2019-05-10T22:58:41.893Z,9.30
2019-05-10T23:01:11.871Z,9.30
2019-05-10T23:03:45.486Z,9.30
2019-05-10T23:06:17.752Z,9.30
2019-05-10T23:08:49.399Z,9.30
2019-05-10T23:11:19.406Z,9.30
2019-05-10T23:13:55.767Z,9.30
2019-05-10T23:16:27.838Z,9.30
2019-05-10T23:19:16.414Z,9.30
2019-05-10T23:21:46.055Z,9.30
2019-05-10T23:24:17.562Z,9.30
2019-05-10T23:26:47.358Z,9.30
2019-05-10T23:29:17.795Z,9.20
2019-05-10T23:31:47.986Z,9.20
2019-05-10T23:34:18.155Z,9.10
2019-05-10T23:36:47.747Z,9.10
2019-05-10T23:39:40.195Z,9.00
2019-05-10T23:42:00.506Z,9.10
2019-05-10T23:44:30.135Z,9.10
2019-05-10T23:47:08.776Z,9.10
2019-05-10T23:49:41.983Z,9.10
2019-05-10T23:52:11.593Z,9.10
2019-05-10T23:54:42.797Z,9.00
2019-05-10T23:57:14.496Z,9.10
2019-05-10T23:59:46.747Z,9.10
